Time;durP1;ratioP1;P1;durP2;ratioP2;P2;SDS_P1;SDS_P2;PMS_P1;PMS_P2;Temp;Humidity;BMP_temperature;BMP_pressure;BME280_temperature;BME280_humidity;BME280_pressure;Samples;Min_cycle;Max_cycle;Signal;HPM_P1;HPM_P2
2024/03/13 00:00:09;;;;;;;12.30;11.80;;;20.30;54.60;;;;;;5014918;28;20450;-69
2024/03/13 00:02:37;;;;;;;11.83;11.53;;;20.30;54.70;;;;;;5015142;28;20453;-69
2024/03/13 00:05:04;;;;;;;12.33;11.93;;;20.30;54.80;;;;;;5007502;28;20455;-70
2024/03/13 00:07:31;;;;;;;12.27;11.87;;;20.30;54.80;;;;;;5005476;28;20984;-70
2024/03/13 00:10:00;;;;;;;12.60;12.10;;;20.20;54.70;;;;;;5006418;28;20450;-69
2024/03/13 00:12:29;;;;;;;11.73;11.43;;;20.20;54.80;;;;;;5007276;28;20999;-69
2024/03/13 00:14:57;;;;;;;11.90;11.50;;;20.20;54.80;;;;;;5014175;28;20442;-70
2024/03/13 00:17:24;;;;;;;12.10;11.70;;;20.20;54.80;;;;;;5014461;28;20971;-69
2024/03/13 00:19:54;;;;;;;12.57;12.10;;;20.20;54.80;;;;;;5014455;28;20496;-70
2024/03/13 00:22:21;;;;;;;12.40;12.00;;;20.20;54.90;;;;;;5006741;28;20442;-69
2024/03/13 00:24:49;;;;;;;12.40;12.00;;;20.20;54.80;;;;;;5014092;28;20442;-69
2024/03/13 00:27:16;;;;;;;12.13;11.73;;;20.20;54.80;;;;;;5014042;28;20469;-69
2024/03/13 00:29:44;;;;;;;12.03;11.63;;;20.20;54.90;;;;;;5014305;28;20496;-70
2024/03/13 00:32:12;;;;;;;12.00;11.60;;;20.20;55.00;;;;;;5021835;28;20449;-70
2024/03/13 00:34:40;;;;;;;12.60;12.20;;;20.20;55.50;;;;;;5005904;28;20438;-69
2024/03/13 00:37:08;;;;;;;11.83;11.53;;;20.20;55.20;;;;;;5014159;28;20478;-69
2024/03/13 00:39:35;;;;;;;13.03;12.57;;;20.10;54.90;;;;;;5013935;28;20446;-69
2024/03/13 00:42:03;;;;;;;12.60;12.20;;;20.10;54.90;;;;;;5013994;28;20480;-70
2024/03/13 00:44:29;;;;;;;12.93;12.43;;;20.10;54.90;;;;;;5011636;28;20516;-70
2024/03/13 00:46:58;;;;;;;11.50;11.20;;;20.10;54.90;;;;;;5002491;28;20463;-69
2024/03/13 00:49:25;;;;;;;11.30;11.00;;;20.10;54.90;;;;;;5003633;28;20449;-69
2024/03/13 00:51:52;;;;;;;11.80;11.40;;;20.10;55.00;;;;;;5006016;28;20442;-69
2024/03/13 00:54:20;;;;;;;11.77;11.37;;;20.10;55.00;;;;;;5012870;28;20452;-69
2024/03/13 00:56:48;;;;;;;11.60;11.30;;;20.10;55.00;;;;;;5002164;28;20474;-69
2024/03/13 00:59:14;;;;;;;12.40;12.00;;;20.10;55.00;;;;;;5002260;28;21317;-70
2024/03/13 01:01:41;;;;;;;11.70;11.40;;;20.10;55.00;;;;;;5015697;28;20452;-69
2024/03/13 01:04:10;;;;;;;12.10;11.70;;;20.10;55.00;;;;;;5012798;28;20442;-69
2024/03/13 01:06:38;;;;;;;12.20;11.80;;;20.10;55.00;;;;;;5013278;28;20467;-69
2024/03/13 01:09:05;;;;;;;11.50;11.20;;;20.10;55.00;;;;;;5013604;28;20450;-69
2024/03/13 01:11:33;;;;;;;12.20;11.80;;;20.10;55.10;;;;;;5013542;28;20787;-69
2024/03/13 01:14:03;;;;;;;12.10;11.70;;;20.10;55.10;;;;;;5012924;28;20828;-69
2024/03/13 01:16:30;;;;;;;11.27;10.97;;;20.00;55.00;;;;;;5013093;28;20898;-69
2024/03/13 01:18:57;;;;;;;12.47;12.07;;;20.00;55.00;;;;;;5013380;28;20463;-69
2024/03/13 01:21:25;;;;;;;11.83;11.53;;;20.00;55.00;;;;;;5004962;28;20453;-68
2024/03/13 01:23:52;;;;;;;12.50;12.10;;;20.00;55.10;;;;;;5004786;28;20537;-69
2024/03/13 01:26:20;;;;;;;12.10;11.60;;;20.00;55.10;;;;;;5004234;28;20485;-68
2024/03/13 01:28:47;;;;;;;11.60;11.20;;;20.00;55.10;;;;;;5005858;28;20457;-69
2024/03/13 01:31:14;;;;;;;11.80;11.40;;;20.00;55.10;;;;;;5005156;28;21043;-70
2024/03/13 01:33:41;;;;;;;12.70;12.20;;;20.00;55.10;;;;;;5012472;28;20438;-69
2024/03/13 01:36:08;;;;;;;11.40;11.10;;;20.00;55.10;;;;;;5012723;28;20489;-69
2024/03/13 01:38:35;;;;;;;11.10;10.70;;;20.00;55.10;;;;;;5013868;28;20441;-69
2024/03/13 01:55:06;;;;;;;12.57;12.10;;;19.90;55.30;;;;;;5006063;28;20452;-69
2024/03/13 01:57:45;;;;;;;11.40;11.10;;;20.00;55.40;;;;;;5002098;28;20547;-70
2024/03/13 02:02:57;;;;;;;11.70;11.40;;;19.90;55.40;;;;;;5006398;28;21116;-69
2024/03/13 02:05:25;;;;;;;11.80;11.30;;;19.90;55.40;;;;;;5011895;28;20450;-70
2024/03/13 02:07:53;;;;;;;11.37;11.07;;;19.90;55.50;;;;;;5012475;28;20513;-69
2024/03/13 02:10:21;;;;;;;11.93;11.53;;;19.90;55.50;;;;;;5012246;28;20438;-70
2024/03/13 02:13:09;;;;;;;12.03;11.70;;;19.90;55.50;;;;;;5000707;28;20963;-69
2024/03/13 02:15:36;;;;;;;11.87;11.57;;;19.90;55.50;;;;;;5001884;28;20530;-70
2024/03/13 02:18:03;;;;;;;11.60;11.20;;;19.90;55.50;;;;;;5016349;28;20561;-69
2024/03/13 02:20:30;;;;;;;11.23;10.93;;;19.90;55.50;;;;;;5011971;28;20446;-70
2024/03/13 02:23:02;;;;;;;12.47;11.97;;;19.90;55.50;;;;;;5012047;28;20454;-69
2024/03/13 02:25:31;;;;;;;11.17;10.87;;;19.90;55.50;;;;;;5011600;28;20450;-69
2024/03/13 02:27:59;;;;;;;12.13;11.83;;;19.90;55.50;;;;;;5011127;28;20442;-70
2024/03/13 02:30:26;;;;;;;12.40;12.00;;;19.90;56.00;;;;;;5010642;28;20448;-70
2024/03/13 02:32:53;;;;;;;11.20;10.90;;;19.90;55.50;;;;;;5010860;28;20442;-70
2024/03/13 02:35:20;;;;;;;12.40;12.00;;;19.90;55.60;;;;;;5010270;28;20476;-70
2024/03/13 02:37:47;;;;;;;11.83;11.43;;;19.90;55.50;;;;;;5014331;28;20510;-70
2024/03/13 02:40:16;;;;;;;11.60;11.30;;;19.90;55.50;;;;;;5002624;28;20445;-70
2024/03/13 02:42:43;;;;;;;12.10;11.70;;;19.90;55.50;;;;;;5010561;28;21031;-70
2024/03/13 02:45:12;;;;;;;12.13;11.83;;;19.90;55.60;;;;;;5010396;28;20453;-70
2024/03/13 02:47:40;;;;;;;10.90;10.60;;;19.90;55.60;;;;;;5011602;28;20497;-70
2024/03/13 02:50:11;;;;;;;11.03;10.73;;;19.90;55.60;;;;;;5010572;28;20468;-70
2024/03/13 02:52:39;;;;;;;11.00;10.70;;;19.90;55.60;;;;;;5010703;28;20536;-70
2024/03/13 02:55:06;;;;;;;11.30;11.00;;;19.90;55.60;;;;;;5010192;28;21001;-70
2024/03/13 02:57:33;;;;;;;11.17;10.87;;;19.90;55.60;;;;;;5017746;28;20904;-70
2024/03/13 03:00:00;;;;;;;11.43;11.13;;;19.90;55.70;;;;;;5017682;28;20441;-71
2024/03/13 03:02:27;;;;;;;11.20;10.90;;;19.90;55.70;;;;;;5001763;28;20472;-70
2024/03/13 03:04:56;;;;;;;12.60;12.20;;;19.80;55.60;;;;;;4983724;28;20486;-71
2024/03/13 03:07:23;;;;;;;12.60;12.30;;;19.90;55.70;;;;;;4994309;28;20473;-70
2024/03/13 03:09:50;;;;;;;12.57;12.07;;;19.80;55.60;;;;;;5017481;28;20438;-70
2024/03/13 03:12:17;;;;;;;12.10;11.73;;;19.80;55.60;;;;;;5002447;28;20829;-70
2024/03/13 03:14:44;;;;;;;11.10;10.80;;;19.90;55.70;;;;;;4998716;28;20439;-70
2024/03/13 03:17:11;;;;;;;11.33;11.03;;;19.80;55.60;;;;;;4991522;28;20478;-70
2024/03/13 03:19:38;;;;;;;10.90;10.60;;;19.80;55.60;;;;;;5011512;28;20496;-71
2024/03/13 03:22:05;;;;;;;11.30;11.00;;;19.80;55.60;;;;;;5002322;28;20450;-70
2024/03/13 03:24:32;;;;;;;12.13;11.73;;;19.80;55.60;;;;;;5000410;28;20445;-70
2024/03/13 03:26:59;;;;;;;11.37;11.07;;;19.80;55.70;;;;;;4988694;28;20459;-70
2024/03/13 03:29:27;;;;;;;11.10;10.80;;;19.90;55.80;;;;;;5016836;28;20438;-70
2024/03/13 03:31:54;;;;;;;11.50;11.20;;;19.80;55.70;;;;;;5006059;28;20954;-70
2024/03/13 03:34:21;;;;;;;11.17;10.87;;;19.90;55.80;;;;;;5013809;28;20488;-70
2024/03/13 03:36:48;;;;;;;12.13;11.73;;;19.80;55.70;;;;;;5005854;28;20481;-71
2024/03/13 03:39:15;;;;;;;11.80;11.30;;;19.90;55.80;;;;;;5014269;28;20430;-70
2024/03/13 03:41:42;;;;;;;11.37;10.97;;;19.80;55.70;;;;;;5014022;28;20445;-70
2024/03/13 03:44:11;;;;;;;11.90;11.50;;;19.80;55.70;;;;;;5013499;28;20465;-70
2024/03/13 03:46:38;;;;;;;10.40;10.10;;;19.80;55.70;;;;;;5013673;28;20458;-70
2024/03/13 03:49:05;;;;;;;10.70;10.40;;;19.80;55.80;;;;;;5014159;28;20939;-71
2024/03/13 03:51:32;;;;;;;11.93;11.63;;;19.80;55.80;;;;;;5013806;28;20454;-70
2024/03/13 03:53:59;;;;;;;11.20;10.90;;;19.80;55.80;;;;;;5013411;28;20445;-71
2024/03/13 03:56:27;;;;;;;11.60;11.30;;;19.80;55.80;;;;;;5013478;28;20987;-70
2024/03/13 03:58:54;;;;;;;11.40;11.10;;;19.80;55.90;;;;;;5013954;28;20438;-71
2024/03/13 04:01:21;;;;;;;10.80;10.50;;;19.80;55.90;;;;;;5013668;28;20452;-70
2024/03/13 04:03:48;;;;;;;12.53;12.23;;;19.80;55.90;;;;;;5013120;28;20561;-69
2024/03/13 04:06:16;;;;;;;11.50;11.10;;;19.80;55.90;;;;;;5013591;28;20982;-68
2024/03/13 04:08:45;;;;;;;11.63;11.33;;;19.80;55.90;;;;;;5014919;28;20442;-68
2024/03/13 04:11:12;;;;;;;11.70;11.40;;;19.80;55.90;;;;;;5016423;28;20525;-67
2024/03/13 04:13:39;;;;;;;12.00;11.60;;;19.80;55.90;;;;;;5013130;28;20438;-69
2024/03/13 04:16:06;;;;;;;12.50;12.10;;;19.80;55.90;;;;;;5005351;28;20549;-67
2024/03/13 04:18:33;;;;;;;11.40;11.10;;;19.80;55.90;;;;;;5013315;28;20482;-68
2024/03/13 04:21:00;;;;;;;12.23;11.83;;;19.80;55.90;;;;;;5013342;28;20525;-69
2024/03/13 04:23:27;;;;;;;11.93;11.63;;;19.80;55.90;;;;;;5004287;28;20449;-68
2024/03/13 04:25:54;;;;;;;12.00;11.70;;;19.80;55.90;;;;;;4986096;28;20465;-70
2024/03/13 04:28:21;;;;;;;12.00;11.70;;;19.80;55.90;;;;;;4997188;28;20804;-68
2024/03/13 04:30:48;;;;;;;11.50;11.10;;;19.80;56.00;;;;;;5012981;28;20442;-68
2024/03/13 04:33:16;;;;;;;12.30;11.90;;;19.80;56.00;;;;;;5004947;28;20437;-68
2024/03/13 04:35:43;;;;;;;12.10;11.80;;;19.70;55.90;;;;;;5012469;28;20469;-68
2024/03/13 04:38:10;;;;;;;11.57;11.27;;;19.70;55.90;;;;;;5014197;28;20505;-68
2024/03/13 04:40:38;;;;;;;11.60;11.30;;;19.80;56.00;;;;;;5010516;28;20438;-69
2024/03/13 04:43:06;;;;;;;12.40;12.10;;;19.70;55.90;;;;;;5013003;28;20446;-68
2024/03/13 04:45:34;;;;;;;12.10;11.80;;;19.70;56.00;;;;;;5012253;28;20533;-68
2024/03/13 04:48:01;;;;;;;13.57;13.27;;;19.70;55.90;;;;;;5009102;28;20442;-68
2024/03/13 04:50:28;;;;;;;15.07;14.67;;;19.70;55.90;;;;;;5004234;28;20438;-68
2024/03/13 04:52:55;;;;;;;13.40;13.00;;;19.80;56.10;;;;;;4985632;28;20816;-69
2024/03/13 04:55:22;;;;;;;11.67;11.37;;;19.80;56.60;;;;;;4995976;28;20438;-68
2024/03/13 04:57:48;;;;;;;12.60;12.10;;;19.70;56.00;;;;;;5014094;28;20480;-68
2024/03/13 05:00:16;;;;;;;12.67;12.37;;;19.70;56.00;;;;;;5004413;28;20966;-68
2024/03/13 05:02:43;;;;;;;12.40;12.10;;;19.70;56.10;;;;;;5012438;28;20939;-69
2024/03/13 05:05:14;;;;;;;12.27;11.97;;;19.70;56.10;;;;;;5011931;28;20445;-68
2024/03/13 05:07:41;;;;;;;13.70;13.30;;;19.70;56.20;;;;;;5019257;28;20805;-68
2024/03/13 05:10:09;;;;;;;12.83;12.53;;;19.70;56.20;;;;;;5012269;28;20947;-68
2024/03/13 05:12:37;;;;;;;12.87;12.50;;;19.70;56.20;;;;;;5012172;28;20458;-68
2024/03/13 05:15:04;;;;;;;12.40;12.10;;;19.70;56.20;;;;;;5003716;28;20473;-67
2024/03/13 05:17:31;;;;;;;12.67;12.27;;;19.70;56.10;;;;;;5012019;28;20485;-69
2024/03/13 05:19:59;;;;;;;12.70;12.40;;;19.70;56.10;;;;;;5012283;28;20449;-67
2024/03/13 05:22:29;;;;;;;12.70;12.30;;;19.70;56.20;;;;;;5004019;28;20446;-68
2024/03/13 05:24:58;;;;;;;13.37;13.07;;;19.70;56.20;;;;;;5012222;28;20468;-69
2024/03/13 05:27:25;;;;;;;12.50;12.20;;;19.70;56.20;;;;;;5003878;28;20470;-69
2024/03/13 05:29:52;;;;;;;12.60;12.30;;;19.70;56.30;;;;;;5000600;28;20461;-69
2024/03/13 05:32:19;;;;;;;12.70;12.40;;;19.70;56.30;;;;;;4987675;28;20449;-69
2024/03/13 05:34:46;;;;;;;12.60;12.30;;;19.70;56.20;;;;;;4998971;28;20437;-69
2024/03/13 05:37:13;;;;;;;12.77;12.27;;;19.70;56.20;;;;;;5003557;28;20470;-70
2024/03/13 05:39:40;;;;;;;12.50;12.20;;;19.70;56.30;;;;;;5011793;28;20815;-69
2024/03/13 05:42:07;;;;;;;13.23;12.83;;;19.70;56.20;;;;;;5011798;28;20473;-69
2024/03/13 05:44:34;;;;;;;12.40;12.10;;;19.70;56.30;;;;;;5011383;28;20438;-69
2024/03/13 05:47:01;;;;;;;13.83;13.43;;;19.70;56.30;;;;;;5011638;28;20496;-69
2024/03/13 05:49:28;;;;;;;13.53;13.13;;;19.70;56.30;;;;;;5003399;28;20441;-69
2024/03/13 05:51:56;;;;;;;13.97;13.50;;;19.70;56.20;;;;;;5003622;28;20447;-69
2024/03/13 05:54:23;;;;;;;16.07;15.17;;;19.80;56.30;;;;;;5003322;28;20446;-69
2024/03/13 05:56:50;;;;;;;17.77;16.17;;;19.80;56.60;;;;;;4994500;28;20473;-69
2024/03/13 05:59:18;;;;;;;16.90;15.50;;;19.80;58.00;;;;;;5011373;28;21010;-69
2024/03/13 06:01:45;;;;;;;20.30;15.57;;;19.80;59.60;;;;;;5011338;28;20485;-69
2024/03/13 06:04:12;;;;;;;20.20;18.00;;;19.80;61.50;;;;;;5002986;28;20438;-68
2024/03/13 06:06:39;;;;;;;25.07;18.07;;;19.80;63.20;;;;;;4992797;28;20885;-69
2024/03/13 06:09:07;;;;;;;24.80;16.90;;;19.80;65.10;;;;;;5011186;28;20442;-69
2024/03/13 06:11:35;;;;;;;21.87;17.07;;;19.90;66.70;;;;;;5015899;28;20446;-69
2024/03/13 06:14:01;;;;;;;21.23;17.37;;;19.90;68.10;;;;;;5003008;28;20446;-68
2024/03/13 06:16:29;;;;;;;21.73;17.63;;;19.90;69.80;;;;;;4991557;28;20837;-68
2024/03/13 06:18:55;;;;;;;24.07;16.27;;;19.90;69.50;;;;;;4995051;28;20532;-68
2024/03/13 06:21:22;;;;;;;27.77;19.07;;;19.90;69.40;;;;;;5003083;28;20442;-68
2024/03/13 06:23:52;;;;;;;25.43;19.77;;;19.90;69.30;;;;;;5010845;28;20958;-68
2024/03/13 06:26:21;;;;;;;26.23;19.40;;;19.90;69.00;;;;;;5004369;28;21104;-68
2024/03/13 06:31:33;;;;;;;20.80;19.10;;;19.90;69.20;;;;;;5010930;28;20962;-69
2024/03/13 06:34:00;;;;;;;20.93;18.70;;;19.90;69.20;;;;;;5002442;28;20454;-69
2024/03/13 06:36:27;;;;;;;16.17;14.83;;;19.90;69.00;;;;;;5010798;28;20461;-68
2024/03/13 06:38:54;;;;;;;17.73;16.13;;;19.90;68.90;;;;;;5010818;28;20565;-68
2024/03/13 06:41:22;;;;;;;17.93;16.10;;;19.90;68.50;;;;;;5010897;28;20457;-68
2024/03/13 06:43:49;;;;;;;16.93;15.63;;;19.90;68.60;;;;;;5010305;28;20485;-67
2024/03/13 06:46:16;;;;;;;18.70;16.70;;;19.90;68.20;;;;;;5002532;28;20462;-69
2024/03/13 06:48:43;;;;;;;18.07;16.40;;;19.90;67.90;;;;;;5010717;28;20528;-68
2024/03/13 06:51:11;;;;;;;19.50;17.10;;;19.90;67.60;;;;;;5010804;28;20442;-68
2024/03/13 06:53:37;;;;;;;16.70;15.30;;;19.90;67.30;;;;;;5010275;28;20994;-67
2024/03/13 06:56:05;;;;;;;16.87;15.97;;;19.90;67.00;;;;;;5002539;28;20458;-68
2024/03/13 06:58:31;;;;;;;16.07;15.27;;;19.90;66.60;;;;;;5010581;28;20477;-68
2024/03/13 07:00:58;;;;;;;17.23;16.13;;;19.90;66.20;;;;;;4986188;28;20454;-68
2024/03/13 07:03:26;;;;;;;18.53;17.20;;;19.90;65.80;;;;;;5000821;28;20442;-67
2024/03/13 07:05:52;;;;;;;17.80;16.80;;;19.90;65.50;;;;;;5005932;28;20466;-69
2024/03/13 07:08:19;;;;;;;15.90;15.00;;;19.90;65.40;;;;;;4992145;28;20936;-67
2024/03/13 07:10:47;;;;;;;19.03;17.17;;;19.90;65.00;;;;;;5000702;28;20437;-68
2024/03/13 07:13:14;;;;;;;17.63;16.20;;;19.90;64.70;;;;;;5016998;28;20488;-67
2024/03/13 07:15:42;;;;;;;16.33;15.40;;;19.90;64.30;;;;;;5016575;28;20489;-68
2024/03/13 07:18:09;;;;;;;15.17;14.37;;;19.90;64.00;;;;;;5009033;28;20551;-69
2024/03/13 07:20:36;;;;;;;17.13;16.03;;;19.90;63.70;;;;;;5016794;28;20449;-67
2024/03/13 07:23:02;;;;;;;16.93;15.80;;;19.90;63.40;;;;;;5017265;28;20454;-69
2024/03/13 07:25:29;;;;;;;17.40;16.00;;;19.90;63.10;;;;;;5017090;28;20445;-68
2024/03/13 07:27:57;;;;;;;18.57;17.17;;;19.90;62.80;;;;;;5018280;28;20456;-69
2024/03/13 07:30:26;;;;;;;17.37;16.47;;;19.90;62.60;;;;;;5010110;28;20822;-67
2024/03/13 07:32:53;;;;;;;16.63;15.63;;;19.90;62.40;;;;;;5017211;28;20477;-69
2024/03/13 07:35:21;;;;;;;16.53;15.23;;;19.90;62.10;;;;;;5016499;28;20441;-70
2024/03/13 07:37:48;;;;;;;15.90;14.90;;;19.90;62.00;;;;;;5016855;28;20946;-70
2024/03/13 07:40:16;;;;;;;14.70;14.10;;;19.90;61.80;;;;;;5008741;28;20504;-69
2024/03/13 07:42:43;;;;;;;14.50;13.80;;;19.90;61.60;;;;;;5016714;28;20446;-69
2024/03/13 07:45:14;;;;;;;15.60;14.60;;;19.90;61.40;;;;;;5016668;28;20485;-68
2024/03/13 07:47:41;;;;;;;15.13;14.27;;;19.90;61.30;;;;;;5016595;28;20556;-69
2024/03/13 07:50:09;;;;;;;14.33;13.57;;;19.90;61.20;;;;;;5008483;28;20869;-68
2024/03/13 07:52:36;;;;;;;15.30;14.60;;;19.90;61.00;;;;;;5016474;28;20442;-69
2024/03/13 07:55:04;;;;;;;15.93;14.80;;;19.90;60.90;;;;;;5016111;28;20446;-68
2024/03/13 07:57:31;;;;;;;16.97;15.57;;;19.90;60.70;;;;;;5016296;28;20462;-69
2024/03/13 07:59:58;;;;;;;15.93;15.23;;;19.90;60.70;;;;;;5008065;28;20485;-69
2024/03/13 08:02:24;;;;;;;14.40;13.90;;;19.90;60.50;;;;;;5016461;28;20446;-69
2024/03/13 08:04:51;;;;;;;14.10;13.60;;;19.90;60.40;;;;;;5005603;28;20441;-68
2024/03/13 08:07:20;;;;;;;16.40;15.40;;;19.90;60.20;;;;;;4991055;28;20466;-69
2024/03/13 08:09:47;;;;;;;15.93;14.93;;;19.90;60.10;;;;;;5000500;28;20942;-69
2024/03/13 08:12:14;;;;;;;15.40;14.80;;;19.90;60.00;;;;;;5013949;28;20445;-68
2024/03/13 08:14:41;;;;;;;16.40;15.60;;;19.90;59.90;;;;;;5012694;28;20446;-69
2024/03/13 08:17:07;;;;;;;14.93;14.43;;;19.90;59.80;;;;;;5005099;28;20465;-69
2024/03/13 08:19:34;;;;;;;15.83;14.50;;;19.90;59.70;;;;;;5013166;28;20668;-69
2024/03/13 08:22:01;;;;;;;14.57;14.00;;;19.90;59.60;;;;;;5005123;28;20792;-69
2024/03/13 08:24:28;;;;;;;15.03;14.33;;;19.90;59.50;;;;;;5012782;28;20944;-69
2024/03/13 08:26:55;;;;;;;15.33;14.67;;;19.90;59.40;;;;;;5002086;28;20466;-69
2024/03/13 08:29:22;;;;;;;16.10;14.80;;;19.90;59.40;;;;;;4988117;28;20443;-68
2024/03/13 08:31:50;;;;;;;16.70;15.70;;;19.90;59.30;;;;;;4996735;28;20441;-70
2024/03/13 08:34:17;;;;;;;15.10;14.40;;;19.90;59.20;;;;;;5012549;28;20488;-69
2024/03/13 08:36:44;;;;;;;15.50;14.60;;;19.90;59.10;;;;;;5012723;28;21009;-68
2024/03/13 08:39:12;;;;;;;15.03;14.27;;;19.90;59.10;;;;;;5005203;28;20477;-70
2024/03/13 08:41:39;;;;;;;15.13;14.43;;;19.90;59.00;;;;;;5013149;28;20453;-68
2024/03/13 08:44:06;;;;;;;15.70;14.93;;;19.90;58.90;;;;;;5012426;28;20484;-68
2024/03/13 08:46:33;;;;;;;15.90;15.30;;;19.90;58.80;;;;;;5012656;28;20465;-68
2024/03/13 08:49:02;;;;;;;14.87;14.37;;;19.90;58.80;;;;;;5004411;28;20446;-68
2024/03/13 08:51:30;;;;;;;15.77;14.87;;;19.90;58.70;;;;;;5012683;28;20450;-68
2024/03/13 08:53:57;;;;;;;14.40;13.90;;;19.90;58.60;;;;;;5001472;28;20904;-68
2024/03/13 08:56:24;;;;;;;14.70;14.20;;;19.90;58.50;;;;;;4987587;28;20469;-69
2024/03/13 08:58:51;;;;;;;14.27;13.77;;;19.90;58.50;;;;;;4996212;28;20482;-68
2024/03/13 09:01:18;;;;;;;14.80;14.30;;;19.90;58.50;;;;;;5012427;28;20441;-68
2024/03/13 09:03:45;;;;;;;15.10;14.57;;;19.90;58.40;;;;;;5011952;28;20478;-68
2024/03/13 09:06:15;;;;;;;15.27;14.30;;;19.90;58.30;;;;;;5004195;28;20465;-69
2024/03/13 09:08:44;;;;;;;15.70;14.80;;;19.90;58.20;;;;;;5012263;28;20438;-69
2024/03/13 09:11:12;;;;;;;14.13;13.43;;;19.90;58.20;;;;;;5012294;28;20448;-69
2024/03/13 09:13:40;;;;;;;14.23;13.80;;;19.90;58.10;;;;;;5011873;28;20661;-68
2024/03/13 09:16:06;;;;;;;13.27;12.90;;;19.90;58.10;;;;;;5004212;28;20497;-67
2024/03/13 09:18:35;;;;;;;14.30;13.83;;;19.90;58.00;;;;;;5012027;28;20481;-68
2024/03/13 09:21:02;;;;;;;14.93;14.10;;;19.90;57.90;;;;;;5000791;28;20443;-69
2024/03/13 09:23:29;;;;;;;14.53;14.03;;;19.90;57.90;;;;;;4987394;28;20447;-68
2024/03/13 09:25:57;;;;;;;14.73;14.23;;;19.90;57.80;;;;;;4993231;28;20466;-68
2024/03/13 09:28:23;;;;;;;14.70;14.10;;;19.90;57.80;;;;;;4986904;28;21011;-68
2024/03/13 09:30:50;;;;;;;15.03;14.20;;;19.90;57.80;;;;;;4995531;28;20816;-66
2024/03/13 09:33:17;;;;;;;14.30;13.90;;;19.90;57.70;;;;;;5011787;28;20454;-66
2024/03/13 09:35:44;;;;;;;14.13;13.30;;;19.90;57.60;;;;;;5011152;28;20466;-66
2024/03/13 09:38:12;;;;;;;15.80;14.90;;;19.90;57.60;;;;;;5003906;28;20450;-66
2024/03/13 09:40:39;;;;;;;14.13;13.63;;;19.90;57.60;;;;;;5011490;28;20484;-66
2024/03/13 09:43:06;;;;;;;14.70;14.10;;;19.90;57.50;;;;;;5003626;28;20449;-66
2024/03/13 09:45:32;;;;;;;13.90;13.47;;;19.90;57.50;;;;;;5002890;28;20457;-67
2024/03/13 09:47:59;;;;;;;14.27;13.20;;;19.90;57.50;;;;;;5011511;28;20834;-66
2024/03/13 09:50:26;;;;;;;14.07;13.33;;;19.90;57.40;;;;;;5011464;28;20446;-66
2024/03/13 09:52:53;;;;;;;13.93;13.53;;;19.90;57.40;;;;;;5011412;28;20445;-66
2024/03/13 09:55:21;;;;;;;14.30;13.80;;;19.90;57.30;;;;;;5010981;28;20457;-66
2024/03/13 09:57:49;;;;;;;14.80;14.10;;;19.90;57.30;;;;;;5002071;28;20485;-66
2024/03/13 10:00:18;;;;;;;14.60;14.20;;;19.90;57.30;;;;;;4984985;28;20475;-67
2024/03/13 10:02:45;;;;;;;13.93;13.50;;;19.90;57.20;;;;;;4995310;28;20446;-67
2024/03/13 10:05:12;;;;;;;14.40;14.00;;;19.90;57.20;;;;;;5010949;28;20442;-66
2024/03/13 10:07:39;;;;;;;14.93;14.43;;;19.90;57.20;;;;;;5011127;28;20517;-67
2024/03/13 10:10:08;;;;;;;15.53;14.93;;;19.90;57.10;;;;;;5002824;28;20442;-67
2024/03/13 10:12:35;;;;;;;15.67;14.90;;;19.90;57.10;;;;;;5011053;28;20474;-67
2024/03/13 10:15:06;;;;;;;14.73;14.23;;;19.90;57.00;;;;;;4999728;28;20455;-67
2024/03/13 10:17:34;;;;;;;15.20;14.43;;;19.90;57.00;;;;;;4986835;28;20502;-67
2024/03/13 10:20:05;;;;;;;16.07;15.37;;;19.90;57.00;;;;;;4994802;28;20576;-66
2024/03/13 10:22:32;;;;;;;15.27;14.67;;;19.90;57.00;;;;;;5011044;28;20476;-67
2024/03/13 10:24:59;;;;;;;15.53;14.90;;;19.90;56.90;;;;;;5010420;28;20553;-67
2024/03/13 10:27:25;;;;;;;14.40;13.90;;;19.90;56.90;;;;;;5002639;28;20478;-67
2024/03/13 10:29:53;;;;;;;15.43;14.93;;;19.90;56.90;;;;;;5010722;28;20816;-67
2024/03/13 10:32:19;;;;;;;14.70;14.23;;;19.90;56.80;;;;;;5010730;28;20449;-66
2024/03/13 10:34:49;;;;;;;15.70;14.90;;;19.90;56.80;;;;;;5009986;28;20445;-67
2024/03/13 10:37:15;;;;;;;13.93;13.53;;;19.90;56.80;;;;;;5002232;28;20458;-67
2024/03/13 10:39:42;;;;;;;14.30;13.80;;;19.90;56.70;;;;;;5010627;28;20995;-67
2024/03/13 10:42:09;;;;;;;16.03;15.50;;;19.90;56.70;;;;;;5002689;28;20438;-67
2024/03/13 10:44:36;;;;;;;14.30;13.90;;;19.90;56.70;;;;;;5002072;28;20442;-67
2024/03/13 10:47:03;;;;;;;14.20;13.80;;;19.90;56.70;;;;;;5010392;28;21348;-67
2024/03/13 10:49:30;;;;;;;14.20;13.80;;;19.90;56.60;;;;;;5010424;28;20438;-66
2024/03/13 10:51:57;;;;;;;14.50;14.00;;;19.90;56.60;;;;;;5010429;28;20441;-66
2024/03/13 10:54:25;;;;;;;14.50;14.00;;;19.90;56.60;;;;;;5002084;28;20446;-66
2024/03/13 10:56:52;;;;;;;13.80;13.40;;;19.90;56.60;;;;;;5010351;28;20462;-67
2024/03/13 10:59:19;;;;;;;15.00;14.50;;;19.90;56.50;;;;;;5010330;28;20474;-67
2024/03/13 11:01:47;;;;;;;14.10;13.60;;;19.90;56.50;;;;;;5010293;28;20450;-66
2024/03/13 11:04:15;;;;;;;13.20;12.70;;;19.90;56.50;;;;;;5002058;28;20442;-66
2024/03/13 11:06:41;;;;;;;13.70;13.30;;;19.90;56.40;;;;;;5010414;28;20458;-66
2024/03/13 11:09:16;;;;;;;13.87;13.33;;;19.90;56.40;;;;;;5010203;28;20437;-67
2024/03/13 11:11:42;;;;;;;14.20;13.73;;;19.90;56.40;;;;;;5010527;28;20477;-66
2024/03/13 11:14:09;;;;;;;14.10;13.70;;;19.90;56.40;;;;;;5001885;28;20449;-66
2024/03/13 11:16:36;;;;;;;13.80;13.40;;;19.90;56.40;;;;;;5002162;28;20461;-67
2024/03/13 11:19:03;;;;;;;15.20;14.63;;;19.90;56.40;;;;;;5010126;28;20442;-66
2024/03/13 11:21:31;;;;;;;14.00;13.50;;;19.90;56.40;;;;;;5010420;28;20492;-66
2024/03/13 11:23:58;;;;;;;14.53;14.03;;;19.90;56.30;;;;;;5009738;28;20434;-67
2024/03/13 11:26:25;;;;;;;13.60;13.20;;;19.90;56.30;;;;;;5002010;28;20458;-67
2024/03/13 11:28:54;;;;;;;14.20;13.80;;;19.90;56.20;;;;;;5010124;28;20442;-66
2024/03/13 11:31:21;;;;;;;13.70;13.30;;;19.90;56.30;;;;;;5010254;28;20935;-66
2024/03/13 11:33:48;;;;;;;14.57;14.17;;;19.90;56.20;;;;;;5009662;28;20442;-66
2024/03/13 11:36:15;;;;;;;13.80;13.37;;;19.90;56.20;;;;;;5001760;28;20465;-67
2024/03/13 11:38:42;;;;;;;14.07;13.57;;;19.90;56.20;;;;;;5010085;28;20446;-66
2024/03/13 11:41:10;;;;;;;14.10;13.70;;;19.90;56.10;;;;;;5009947;28;20469;-67
2024/03/13 11:43:37;;;;;;;13.30;13.00;;;19.90;56.10;;;;;;5009755;28;20445;-66
2024/03/13 11:46:04;;;;;;;13.70;13.30;;;19.90;56.10;;;;;;5009857;28;20477;-66
2024/03/13 11:48:31;;;;;;;14.63;14.23;;;19.90;56.10;;;;;;5005449;28;20438;-66
2024/03/13 11:51:08;;;;;;;13.97;13.37;;;19.90;56.10;;;;;;5013625;28;20504;-67
2024/03/13 11:53:35;;;;;;;14.57;14.17;;;19.90;56.10;;;;;;5013179;28;20454;-67
2024/03/13 11:56:03;;;;;;;13.97;13.57;;;19.90;56.10;;;;;;5013448;28;20491;-67
2024/03/13 11:58:32;;;;;;;13.50;13.03;;;19.90;56.10;;;;;;5005429;28;20442;-66
2024/03/13 12:00:59;;;;;;;14.10;13.60;;;19.90;56.10;;;;;;5013300;28;20509;-67
2024/03/13 12:03:30;;;;;;;14.30;13.90;;;20.00;56.10;;;;;;5013474;28;20445;-67
2024/03/13 12:05:59;;;;;;;13.80;13.40;;;20.00;56.10;;;;;;5014663;28;20469;-69
2024/03/13 12:08:27;;;;;;;14.50;14.00;;;19.90;56.00;;;;;;5006485;28;20471;-66
2024/03/13 12:10:55;;;;;;;13.20;12.80;;;19.90;56.00;;;;;;5013364;28;20500;-67
2024/03/13 12:13:22;;;;;;;14.47;14.03;;;19.90;56.00;;;;;;5014260;28;20955;-68
2024/03/13 12:15:48;;;;;;;14.07;13.67;;;19.90;55.90;;;;;;5013049;28;20462;-67
2024/03/13 12:18:16;;;;;;;13.53;13.23;;;19.90;55.90;;;;;;5005103;28;20465;-67
2024/03/13 12:20:43;;;;;;;13.20;12.90;;;19.90;55.90;;;;;;5013001;28;20608;-67
2024/03/13 12:23:12;;;;;;;13.73;13.33;;;19.90;55.90;;;;;;5012864;28;20446;-67
2024/03/13 12:25:40;;;;;;;14.27;13.87;;;19.90;55.90;;;;;;5012562;28;20454;-67
2024/03/13 12:28:12;;;;;;;13.50;13.10;;;20.00;55.90;;;;;;5012775;28;21006;-67
2024/03/13 12:30:39;;;;;;;14.10;13.70;;;19.90;55.90;;;;;;5012913;28;20514;-67
2024/03/13 12:33:06;;;;;;;14.43;14.03;;;20.00;55.90;;;;;;5002297;28;20461;-66
2024/03/13 12:35:33;;;;;;;14.23;13.90;;;20.00;55.90;;;;;;4987547;28;20447;-66
2024/03/13 12:38:01;;;;;;;14.03;13.53;;;19.90;55.80;;;;;;4996479;28;21014;-67
2024/03/13 12:40:27;;;;;;;14.37;14.00;;;19.90;55.80;;;;;;5012698;28;20482;-67
2024/03/13 12:42:54;;;;;;;14.70;14.30;;;19.90;55.80;;;;;;5012532;28;20454;-67
2024/03/13 12:45:21;;;;;;;14.20;13.80;;;19.90;55.80;;;;;;5004257;28;20818;-67
2024/03/13 12:47:49;;;;;;;15.30;14.90;;;19.90;55.80;;;;;;5012679;28;20442;-67